Wednesday, October 17, 2018, 8:02 AM GMT
Back to Local

CYZX, Greenwood, N. S.

Location: , , Canada Lat: 44.983
Local Time: 8:02 AM GMT ( 8:02 GMT) Lon: -64.917
Time Zone: GMT Elev: 91 ft

Show me the last for .
Show Coded

Time T Td Feel RH Dir Speed Gust Alt SLP Vis Weather Sky Remarks
2018-10-17 07:00 43 30 41 60 270° 3 - 29.92 29.92 15 CLR None
2018-10-17 06:00 43 30 34 60 290° 12 23 29.93 29.93 15 FEW180 None
2018-10-17 05:00 45 30 37 56 280° 17 - 29.92 29.92 15 SCT045 None
2018-10-17 04:00 45 32 37 61 290° 9 17 29.90 29.90 15 FEW045 None
2018-10-17 03:00 45 32 36 61 290° 14 24 29.89 29.90 15 CLR None
2018-10-17 02:00 46 32 39 56 300° 10 17 29.89 29.89 15 CLR None
2018-10-17 01:00 46 32 37 56 290° 15 33 29.86 29.87 15 FEW045 None
2018-10-17 00:00 48 34 42 57 270° 13 18 29.84 29.84 15 FEW045 None
2018-10-16 23:00 50 34 43 53 270° 17 23 29.81 29.82 15 FEW045 None
2018-10-16 22:00 50 36 43 57 260° 18 25 29.79 29.79 15 FEW040 None
2018-10-16 21:00 52 36 - 53 260° 24 37 29.76 29.76 15 FEW040 None
2018-10-16 20:00 52 36 - 53 290° 22 38 29.73 29.73 15 FEW040 None
2018-10-16 19:00 52 37 - 57 270° 28 38 29.72 29.72 15 FEW040 None
2018-10-16 18:00 52 37 - 57 260° 25 44 29.71 29.72 15 SCT040 None
2018-10-16 17:00 52 36 - 53 260° 29 37 29.71 29.71 15 SCT040 None
2018-10-16 16:00 50 36 40 57 260° 28 47 29.72 29.72 15 SCT040 None
2018-10-16 15:00 48 32 38 53 250° 31 44 29.69 29.70 15 BKN040 None
2018-10-16 14:00 48 34 37 57 270° 43 51 29.68 29.68 15 BKN040 None
2018-10-16 13:00 48 34 37 57 270° 39 51 29.65 29.65 15 BKN035 None
2018-10-16 12:53 48 34 37 57 270° 39 51 29.65 29.65 15 BKN035 None
2018-10-16 12:00 48 34 38 57 270° 35 48 29.61 29.61 15 SCT030 SCT250 None
2018-10-16 11:00 50 41 41 71 260° 22 43 29.55 29.56 15 FEW020 SCT050 BKN090 None
2018-10-16 10:40 52 43 - 71 280° 30 44 29.54 29.54 15 SCT015 BKN050 None
2018-10-16 10:00 52 48 - 87 270° 25 33 29.51 29.52 15 -SHRA SCT015 OVC050 None
2018-10-16 09:47 54 50 - 87 280° 31 45 29.50 29.50 15 -SHRA SCT012 OVC035 None
2018-10-16 09:15 55 52 - 87 260° 21 30 29.48 29.48 15 SCT015 BKN050 None
2018-10-16 09:00 55 54 - 93 260° 24 39 29.47 29.48 6 RA BR BKN015 OVC045 None

Support USWX by starting your Amazon purchase here.